Time;durP1;ratioP1;P1;durP2;ratioP2;P2;SDS_P1;SDS_P2;PMS_P1;PMS_P2;Temp;Humidity;BMP_temperature;BMP_pressure;BME280_temperature;BME280_humidity;BME280_pressure;Samples;Min_cycle;Max_cycle;Signal;HPM_P1;HPM_P2
2023/11/29 00:02:17;;;;;;;10.07;7.70;;;-0.80;99.90;;;;;;4870731;29;20093;-81
2023/11/29 00:04:43;;;;;;;10.70;8.13;;;-0.70;99.90;;;;;;4869684;29;20048;-81
2023/11/29 00:07:08;;;;;;;9.47;7.47;;;-0.70;99.90;;;;;;4870268;29;20045;-82
2023/11/29 00:09:35;;;;;;;10.33;7.97;;;-0.70;99.90;;;;;;4867510;29;20894;-81
2023/11/29 00:12:01;;;;;;;10.87;8.27;;;-0.70;99.90;;;;;;4870890;29;20104;-82
2023/11/29 00:14:27;;;;;;;11.37;9.17;;;-0.80;99.90;;;;;;4869232;29;20053;-82
2023/11/29 00:16:52;;;;;;;11.33;8.57;;;-0.70;99.90;;;;;;4869229;29;20097;-82
2023/11/29 00:19:18;;;;;;;13.63;9.13;;;-0.80;99.90;;;;;;4868128;29;20033;-82
2023/11/29 00:21:43;;;;;;;11.07;8.10;;;-0.70;99.90;;;;;;4870235;29;20033;-81
2023/11/29 00:24:11;;;;;;;12.87;9.53;;;-0.80;99.90;;;;;;4868261;29;20389;-81
2023/11/29 00:26:37;;;;;;;11.37;8.77;;;-0.80;99.90;;;;;;4872906;29;20041;-82
2023/11/29 00:29:02;;;;;;;13.73;10.17;;;-0.70;99.90;;;;;;4872058;29;20043;-81
2023/11/29 00:31:28;;;;;;;11.27;8.77;;;-0.80;99.90;;;;;;4872670;29;20029;-81
2023/11/29 00:33:54;;;;;;;12.07;9.80;;;-0.80;99.90;;;;;;4874134;29;20468;-81
2023/11/29 00:36:19;;;;;;;13.00;9.33;;;-0.80;99.90;;;;;;4872990;29;20033;-81
2023/11/29 00:38:45;;;;;;;14.77;9.87;;;-0.80;99.90;;;;;;4872496;29;20033;-81
2023/11/29 00:41:10;;;;;;;12.20;9.23;;;-0.80;99.90;;;;;;4874574;29;20101;-82
2023/11/29 00:43:37;;;;;;;13.33;9.37;;;-0.80;99.90;;;;;;4872032;29;20450;-81
2023/11/29 00:46:03;;;;;;;13.20;9.50;;;-0.90;99.90;;;;;;4873221;29;20041;-81
2023/11/29 00:48:30;;;;;;;13.57;9.63;;;-0.90;99.90;;;;;;4872633;29;20044;-81
2023/11/29 00:50:56;;;;;;;12.77;9.10;;;-0.90;99.90;;;;;;4874618;29;21456;-82
2023/11/29 00:53:22;;;;;;;12.77;9.53;;;-0.90;99.90;;;;;;4874491;29;20053;-82
2023/11/29 00:55:47;;;;;;;12.40;9.43;;;-0.90;99.90;;;;;;4874052;29;20516;-82
2023/11/29 00:58:13;;;;;;;13.73;10.43;;;-0.90;99.90;;;;;;4874532;29;20064;-82
2023/11/29 01:00:38;;;;;;;12.00;8.70;;;-0.90;99.90;;;;;;4875010;29;20029;-81
2023/11/29 01:03:04;;;;;;;14.67;9.60;;;-1.00;99.90;;;;;;4874303;29;20041;-82
2023/11/29 01:05:30;;;;;;;12.27;9.43;;;-1.00;99.90;;;;;;4874600;29;20116;-81
2023/11/29 01:07:56;;;;;;;11.97;8.97;;;-1.00;99.90;;;;;;4873323;29;20449;-81
2023/11/29 01:10:21;;;;;;;12.93;9.17;;;-1.00;99.90;;;;;;4872928;29;20174;-81
2023/11/29 01:12:47;;;;;;;14.03;10.30;;;-1.00;99.90;;;;;;4873325;29;20041;-82
2023/11/29 01:15:13;;;;;;;13.07;10.27;;;-1.00;99.90;;;;;;4873026;29;20037;-81
2023/11/29 01:17:38;;;;;;;13.53;10.20;;;-1.00;99.90;;;;;;4874522;29;20032;-81
2023/11/29 01:20:06;;;;;;;14.73;10.83;;;-1.00;99.90;;;;;;4873808;29;20033;-82
2023/11/29 01:22:32;;;;;;;14.30;10.90;;;-1.00;99.90;;;;;;4874105;29;20037;-81
2023/11/29 01:24:58;;;;;;;15.50;11.50;;;-1.00;99.90;;;;;;4872603;29;20040;-81
2023/11/29 01:27:23;;;;;;;16.23;11.97;;;-1.00;99.90;;;;;;4871973;29;20052;-81
2023/11/29 01:29:49;;;;;;;17.23;12.30;;;-1.00;99.90;;;;;;4872154;29;20040;-82
2023/11/29 01:32:15;;;;;;;15.77;11.80;;;-0.90;99.90;;;;;;4872213;29;20037;-81
2023/11/29 01:34:41;;;;;;;14.83;11.90;;;-1.00;99.90;;;;;;4872772;29;20156;-81
2023/11/29 01:37:07;;;;;;;15.83;12.20;;;-1.00;99.90;;;;;;4872091;29;20040;-81
2023/11/29 01:39:32;;;;;;;15.17;11.73;;;-1.00;99.90;;;;;;4873287;29;20045;-82
2023/11/29 01:41:58;;;;;;;16.60;12.37;;;-1.00;99.90;;;;;;4873689;29;20025;-82
2023/11/29 01:44:24;;;;;;;15.33;11.43;;;-0.90;99.90;;;;;;4873726;29;20564;-81
2023/11/29 01:46:50;;;;;;;14.90;12.20;;;-1.00;99.90;;;;;;4873349;29;20037;-82
2023/11/29 01:49:18;;;;;;;16.47;11.93;;;-1.00;99.90;;;;;;4873674;29;20041;-81
2023/11/29 01:51:44;;;;;;;15.93;11.43;;;-0.90;99.90;;;;;;4873127;29;20100;-81
2023/11/29 01:54:10;;;;;;;15.13;12.10;;;-1.00;99.90;;;;;;4875760;29;20191;-81
2023/11/29 01:56:35;;;;;;;14.90;11.87;;;-1.00;99.90;;;;;;4875993;29;20036;-82
2023/11/29 01:59:01;;;;;;;15.77;11.77;;;-0.90;99.90;;;;;;4875947;29;20033;-82
2023/11/29 02:01:26;;;;;;;15.13;11.80;;;-1.00;99.90;;;;;;4876065;29;20032;-82
2023/11/29 02:03:52;;;;;;;17.60;12.93;;;-1.00;99.90;;;;;;4877231;29;20061;-82
2023/11/29 02:06:19;;;;;;;17.07;12.60;;;-0.90;99.90;;;;;;4875670;29;20040;-81
2023/11/29 02:08:45;;;;;;;17.63;12.70;;;-1.00;99.90;;;;;;4878751;29;20061;-81
2023/11/29 02:11:16;;;;;;;17.40;12.90;;;-1.00;99.90;;;;;;4879407;29;20044;-81
2023/11/29 02:13:41;;;;;;;15.77;12.37;;;-1.00;99.90;;;;;;4878907;29;20051;-81
2023/11/29 02:16:07;;;;;;;18.07;13.23;;;-1.00;99.90;;;;;;4877047;29;20029;-82
2023/11/29 02:18:33;;;;;;;17.37;12.60;;;-1.00;99.90;;;;;;4877960;29;20040;-82
2023/11/29 02:20:58;;;;;;;16.63;12.73;;;-1.00;99.90;;;;;;4878633;29;20029;-82
2023/11/29 02:23:35;;;;;;;17.67;13.03;;;-1.00;99.90;;;;;;4876044;29;20041;-82
2023/11/29 02:26:00;;;;;;;17.57;13.50;;;-1.00;99.90;;;;;;4876275;29;20045;-82
2023/11/29 02:28:26;;;;;;;20.10;12.97;;;-1.00;99.90;;;;;;4876646;29;20029;-82
2023/11/29 02:30:51;;;;;;;17.23;12.83;;;-1.00;99.90;;;;;;4878325;29;20033;-81
2023/11/29 02:33:17;;;;;;;17.90;13.63;;;-1.10;99.90;;;;;;4876902;29;20065;-82
2023/11/29 02:35:42;;;;;;;16.97;13.20;;;-1.00;99.90;;;;;;4877616;29;20037;-82
2023/11/29 02:38:09;;;;;;;18.17;13.33;;;-1.00;99.90;;;;;;4877911;29;20029;-82
2023/11/29 02:40:35;;;;;;;17.70;13.20;;;-1.00;99.90;;;;;;4876853;29;20816;-82
2023/11/29 02:43:00;;;;;;;17.87;13.27;;;-1.00;99.90;;;;;;4877246;29;20036;-81
2023/11/29 02:45:26;;;;;;;19.30;14.80;;;-1.00;99.90;;;;;;4876324;29;20132;-82
2023/11/29 02:47:51;;;;;;;17.70;12.77;;;-1.00;99.90;;;;;;4875143;29;20033;-81
2023/11/29 02:50:17;;;;;;;18.87;13.97;;;-1.00;99.90;;;;;;4875414;29;20053;-82
2023/11/29 02:52:45;;;;;;;21.50;14.23;;;-1.00;99.90;;;;;;4875638;29;20045;-82
2023/11/29 02:55:11;;;;;;;19.43;14.53;;;-1.00;99.90;;;;;;4874795;29;20044;-82
2023/11/29 02:57:36;;;;;;;19.87;13.90;;;-1.00;99.90;;;;;;4875301;29;20123;-82
2023/11/29 03:00:03;;;;;;;18.97;13.80;;;-1.00;99.90;;;;;;4875278;29;20066;-82
2023/11/29 03:02:28;;;;;;;21.87;15.40;;;-1.00;99.90;;;;;;4874263;29;20394;-82
2023/11/29 03:04:54;;;;;;;20.60;15.67;;;-1.00;99.90;;;;;;4873538;29;20036;-82
2023/11/29 03:07:19;;;;;;;19.27;14.37;;;-1.00;99.90;;;;;;4875686;29;20045;-82
2023/11/29 03:09:45;;;;;;;19.73;14.57;;;-1.00;99.90;;;;;;4875337;29;20064;-82
2023/11/29 03:12:11;;;;;;;21.50;14.47;;;-1.00;99.90;;;;;;4876316;29;20029;-83
2023/11/29 03:14:36;;;;;;;28.87;16.53;;;-1.00;99.90;;;;;;4873301;29;20037;-83
2023/11/29 03:17:02;;;;;;;23.20;15.30;;;-1.00;99.90;;;;;;4875155;29;20037;-82
2023/11/29 03:19:27;;;;;;;22.30;15.27;;;-0.90;99.90;;;;;;4874122;29;20040;-83
2023/11/29 03:21:53;;;;;;;21.93;15.53;;;-1.00;99.90;;;;;;4875313;29;20052;-83
2023/11/29 03:24:19;;;;;;;22.23;15.43;;;-1.00;99.90;;;;;;4875069;29;20037;-83
2023/11/29 03:26:44;;;;;;;22.43;16.03;;;-1.00;99.90;;;;;;4873329;29;20053;-82
2023/11/29 03:29:10;;;;;;;23.37;15.80;;;-1.00;99.90;;;;;;4874083;29;20049;-82
2023/11/29 03:31:36;;;;;;;21.67;15.77;;;-1.00;99.90;;;;;;4873698;29;20037;-82
2023/11/29 03:34:01;;;;;;;22.17;15.20;;;-1.00;99.90;;;;;;4874382;29;20040;-82
2023/11/29 03:36:27;;;;;;;24.37;17.07;;;-1.00;99.90;;;;;;4874605;29;20040;-83
2023/11/29 03:38:53;;;;;;;22.83;15.47;;;-1.00;99.90;;;;;;4873904;29;20037;-83
2023/11/29 03:41:18;;;;;;;23.47;15.43;;;-0.90;99.90;;;;;;4873265;29;20548;-82
2023/11/29 03:43:44;;;;;;;26.73;16.93;;;-0.90;99.90;;;;;;4873219;29;20040;-82
2023/11/29 03:46:09;;;;;;;25.37;17.57;;;-1.00;99.90;;;;;;4874217;29;20041;-82
2023/11/29 03:48:35;;;;;;;25.83;17.60;;;-1.00;99.90;;;;;;4873529;29;20037;-82
2023/11/29 03:51:01;;;;;;;24.67;17.33;;;-1.00;99.90;;;;;;4874712;29;20916;-83
2023/11/29 03:53:26;;;;;;;24.00;17.03;;;-1.00;99.90;;;;;;4873145;29;20139;-82
2023/11/29 03:55:52;;;;;;;26.97;16.90;;;-1.00;99.90;;;;;;4872889;29;20049;-83
2023/11/29 03:58:18;;;;;;;29.00;18.00;;;-1.00;99.90;;;;;;4872761;29;20120;-83
2023/11/29 04:00:43;;;;;;;25.13;16.67;;;-1.00;99.90;;;;;;4872953;29;20074;-82
2023/11/29 04:03:09;;;;;;;24.93;16.80;;;-1.00;99.90;;;;;;4874060;29;20065;-82
2023/11/29 04:05:34;;;;;;;24.73;16.97;;;-1.00;99.90;;;;;;4871396;29;20041;-83
2023/11/29 04:08:01;;;;;;;26.90;18.03;;;-1.00;99.90;;;;;;4871763;29;20033;-83
2023/11/29 04:10:29;;;;;;;25.37;17.07;;;-1.00;99.90;;;;;;4873873;29;20036;-82
2023/11/29 04:12:55;;;;;;;28.87;18.23;;;-1.00;99.90;;;;;;4873562;29;20797;-83
2023/11/29 04:15:20;;;;;;;25.87;17.80;;;-1.00;99.90;;;;;;4871845;29;20029;-82
2023/11/29 04:17:46;;;;;;;26.20;17.77;;;-1.10;99.90;;;;;;4870646;29;20033;-82
2023/11/29 04:20:12;;;;;;;26.47;17.67;;;-1.10;99.90;;;;;;4869872;29;20037;-82
2023/11/29 04:22:38;;;;;;;25.57;17.80;;;-1.10;99.90;;;;;;4869129;29;20033;-83
2023/11/29 04:25:07;;;;;;;25.30;17.00;;;-1.10;99.90;;;;;;4868943;29;20088;-83
2023/11/29 04:27:32;;;;;;;25.03;16.83;;;-1.10;99.90;;;;;;4869825;29;20165;-83
2023/11/29 04:29:58;;;;;;;23.60;15.73;;;-1.10;99.90;;;;;;4869291;29;20169;-83
2023/11/29 04:32:23;;;;;;;24.40;16.13;;;-1.10;99.90;;;;;;4872502;29;20048;-83
2023/11/29 04:34:49;;;;;;;22.50;14.90;;;-1.10;99.90;;;;;;4870415;29;20041;-83
2023/11/29 04:37:15;;;;;;;20.80;13.90;;;-1.10;99.90;;;;;;4871892;29;20033;-83
2023/11/29 04:39:40;;;;;;;22.80;15.27;;;-1.10;99.90;;;;;;4873615;29;20033;-83
2023/11/29 04:42:06;;;;;;;23.33;15.30;;;-1.10;99.90;;;;;;4872167;29;20067;-83
2023/11/29 04:44:32;;;;;;;22.57;14.50;;;-1.10;99.90;;;;;;4872737;29;20033;-84
2023/11/29 04:46:57;;;;;;;23.07;14.90;;;-1.20;99.90;;;;;;4873114;29;20033;-83
2023/11/29 04:49:23;;;;;;;19.70;13.67;;;-1.20;99.90;;;;;;4872385;29;20472;-83
2023/11/29 04:51:48;;;;;;;19.63;13.50;;;-1.10;99.90;;;;;;4873737;29;20489;-83
2023/11/29 04:54:14;;;;;;;23.13;14.80;;;-1.10;99.90;;;;;;4871873;29;20524;-83
2023/11/29 04:56:39;;;;;;;22.03;14.23;;;-1.10;99.90;;;;;;4873067;29;20029;-84
2023/11/29 04:59:05;;;;;;;23.87;14.67;;;-1.10;99.90;;;;;;4872113;29;20408;-83
2023/11/29 05:01:31;;;;;;;22.60;14.87;;;-1.10;99.90;;;;;;4872244;29;20048;-83
2023/11/29 05:03:57;;;;;;;21.00;14.77;;;-1.10;99.90;;;;;;4872183;29;20037;-83
2023/11/29 05:06:23;;;;;;;23.80;14.57;;;-1.10;99.90;;;;;;4872142;29;20036;-83
2023/11/29 05:08:49;;;;;;;21.60;13.97;;;-1.10;99.90;;;;;;4870982;29;20124;-83
2023/11/29 05:11:15;;;;;;;20.83;13.40;;;-1.20;99.90;;;;;;4873063;29;20053;-83
2023/11/29 05:13:41;;;;;;;18.50;13.43;;;-1.20;99.90;;;;;;4871981;29;20052;-83
2023/11/29 05:16:07;;;;;;;18.67;13.00;;;-1.20;99.90;;;;;;4871968;29;20045;-84
2023/11/29 05:18:33;;;;;;;18.60;12.77;;;-1.30;99.90;;;;;;4872257;29;20163;-83
2023/11/29 05:20:58;;;;;;;20.50;13.10;;;-1.30;99.90;;;;;;4870664;29;20153;-83
2023/11/29 05:23:26;;;;;;;20.80;13.87;;;-1.30;99.90;;;;;;4870350;29;20037;-84
2023/11/29 05:25:52;;;;;;;18.87;12.73;;;-1.40;99.90;;;;;;4871039;29;20120;-83
2023/11/29 05:28:26;;;;;;;21.37;13.53;;;-1.40;99.90;;;;;;4873817;29;20033;-83
2023/11/29 05:30:53;;;;;;;19.50;12.63;;;-1.40;99.90;;;;;;4877704;29;20052;-84
2023/11/29 05:33:19;;;;;;;19.33;12.67;;;-1.40;99.90;;;;;;4877024;29;20040;-84
2023/11/29 05:35:45;;;;;;;21.40;13.57;;;-1.50;99.90;;;;;;4878506;29;20033;-83
2023/11/29 05:38:11;;;;;;;19.13;12.63;;;-1.50;99.90;;;;;;4876935;29;20040;-84
2023/11/29 05:40:36;;;;;;;19.83;13.00;;;-1.50;99.90;;;;;;4878235;29;20037;-83
2023/11/29 05:43:02;;;;;;;21.17;13.37;;;-1.60;99.90;;;;;;4876153;29;20043;-83
2023/11/29 05:45:28;;;;;;;19.33;12.90;;;-1.60;99.90;;;;;;4876378;29;20051;-84
2023/11/29 05:47:53;;;;;;;21.73;13.80;;;-1.70;99.90;;;;;;4874670;29;20048;-85
2023/11/29 05:50:19;;;;;;;22.23;13.43;;;-1.70;99.90;;;;;;4873756;29;20091;-82
2023/11/29 05:52:45;;;;;;;19.63;12.57;;;-1.70;99.90;;;;;;4870578;29;20126;-83
2023/11/29 05:55:11;;;;;;;20.60;13.17;;;-1.70;99.90;;;;;;4871151;29;21262;-82
2023/11/29 05:57:37;;;;;;;21.80;13.60;;;-1.70;99.90;;;;;;4871141;29;20031;-83
2023/11/29 06:00:08;;;;;;;22.93;14.10;;;-1.80;99.90;;;;;;4871515;29;20028;-82
2023/11/29 06:02:35;;;;;;;20.80;12.77;;;-1.80;99.90;;;;;;4872501;29;20136;-82
2023/11/29 06:05:01;;;;;;;19.93;12.40;;;-1.80;99.90;;;;;;4871615;29;20084;-82
2023/11/29 06:07:26;;;;;;;22.87;12.60;;;-1.90;99.90;;;;;;4872014;29;20047;-82
2023/11/29 06:09:52;;;;;;;22.00;13.43;;;-1.90;99.90;;;;;;4872043;29;20037;-83
2023/11/29 06:12:18;;;;;;;22.10;13.57;;;-1.90;99.90;;;;;;4873654;29;20409;-82
2023/11/29 06:14:43;;;;;;;25.33;14.03;;;-1.90;99.90;;;;;;4872856;29;20122;-84
2023/11/29 06:17:09;;;;;;;24.47;14.27;;;-1.90;99.90;;;;;;4871200;29;20073;-83
2023/11/29 06:19:35;;;;;;;24.17;14.50;;;-1.90;99.90;;;;;;4873198;29;20035;-82
2023/11/29 06:22:00;;;;;;;24.87;14.70;;;-2.00;99.90;;;;;;4871367;29;20119;-83
2023/11/29 06:24:31;;;;;;;21.47;13.53;;;-2.00;99.90;;;;;;4873577;29;20121;-83
2023/11/29 06:26:59;;;;;;;25.40;15.17;;;-2.00;99.90;;;;;;4866508;29;20112;-85
2023/11/29 06:29:24;;;;;;;24.97;15.10;;;-2.00;99.90;;;;;;4853166;29;20033;-84
2023/11/29 06:31:50;;;;;;;24.20;14.47;;;-2.00;99.90;;;;;;4859541;29;20696;-83
2023/11/29 06:34:15;;;;;;;22.53;14.53;;;-2.00;99.90;;;;;;4862263;29;20046;-83
2023/11/29 06:36:41;;;;;;;29.50;15.57;;;-2.00;99.90;;;;;;4861420;29;20029;-83
2023/11/29 06:39:09;;;;;;;26.17;15.60;;;-2.10;99.90;;;;;;4861306;29;20037;-85
2023/11/29 06:41:36;;;;;;;27.17;16.10;;;-2.00;99.90;;;;;;4861064;29;20101;-84
2023/11/29 06:44:03;;;;;;;28.00;16.67;;;-2.10;99.90;;;;;;4861379;29;20033;-84
2023/11/29 06:46:29;;;;;;;27.20;16.03;;;-2.10;99.90;;;;;;4859247;29;20804;-82
2023/11/29 06:48:55;;;;;;;25.87;16.13;;;-2.10;99.90;;;;;;4860582;29;20036;-83
2023/11/29 06:51:21;;;;;;;26.70;16.07;;;-2.10;99.90;;;;;;4871786;29;20087;-83
2023/11/29 06:53:47;;;;;;;28.60;16.50;;;-2.10;99.90;;;;;;4872614;29;20044;-83
2023/11/29 06:56:13;;;;;;;30.03;17.53;;;-2.10;99.90;;;;;;4870668;29;20177;-82
2023/11/29 06:58:39;;;;;;;34.37;19.70;;;-2.20;99.90;;;;;;4871494;29;20120;-82
2023/11/29 07:01:07;;;;;;;35.23;19.70;;;-2.20;99.90;;;;;;4873345;29;20899;-83
2023/11/29 07:03:33;;;;;;;33.87;18.77;;;-2.20;99.90;;;;;;4875232;29;20040;-83
2023/11/29 07:05:59;;;;;;;40.60;19.80;;;-2.20;99.90;;;;;;4875566;29;20040;-82
2023/11/29 07:08:24;;;;;;;31.63;18.17;;;-2.20;99.90;;;;;;4874058;29;20025;-83
2023/11/29 07:10:50;;;;;;;29.23;18.10;;;-2.20;99.90;;;;;;4873946;29;20066;-83
2023/11/29 07:13:16;;;;;;;25.33;15.37;;;-2.20;99.90;;;;;;4871488;29;20409;-82
2023/11/29 07:15:41;;;;;;;24.77;15.10;;;-2.20;99.90;;;;;;4871565;29;20029;-83
2023/11/29 07:18:07;;;;;;;24.77;15.57;;;-2.20;99.90;;;;;;4871119;29;20033;-82
2023/11/29 07:20:33;;;;;;;24.97;14.90;;;-2.20;99.90;;;;;;4870953;29;20036;-82
2023/11/29 07:22:58;;;;;;;26.53;14.63;;;-2.20;99.90;;;;;;4872168;29;20055;-82
2023/11/29 07:25:24;;;;;;;24.57;14.47;;;-2.20;99.90;;;;;;4869934;29;20941;-83
2023/11/29 07:27:49;;;;;;;23.97;14.30;;;-2.20;99.90;;;;;;4872570;29;20807;-82
2023/11/29 07:30:15;;;;;;;24.70;14.13;;;-2.10;99.90;;;;;;4872509;29;20036;-83
2023/11/29 07:32:43;;;;;;;22.50;13.33;;;-2.10;99.90;;;;;;4871372;29;20041;-83
2023/11/29 07:35:08;;;;;;;26.67;13.57;;;-2.10;99.90;;;;;;4870166;29;21451;-83
2023/11/29 07:37:34;;;;;;;22.83;13.30;;;-2.10;99.90;;;;;;4859567;29;20044;-83
2023/11/29 07:39:59;;;;;;;22.00;13.20;;;-2.10;99.90;;;;;;4859458;29;20036;-83
2023/11/29 07:42:25;;;;;;;19.43;12.50;;;-2.10;99.90;;;;;;4860351;29;20646;-83
2023/11/29 07:44:50;;;;;;;20.13;12.60;;;-2.10;99.90;;;;;;4859755;29;20033;-83
2023/11/29 07:47:16;;;;;;;24.07;13.10;;;-2.00;99.90;;;;;;4859722;29;20041;-83
2023/11/29 07:49:41;;;;;;;22.57;14.47;;;-2.00;99.90;;;;;;4858585;29;21706;-84
2023/11/29 07:52:07;;;;;;;20.73;13.90;;;-1.90;99.90;;;;;;4857713;29;20035;-83
2023/11/29 07:54:32;;;;;;;21.40;13.93;;;-1.90;99.90;;;;;;4859435;29;20037;-84
2023/11/29 07:56:58;;;;;;;19.10;12.17;;;-1.80;99.90;;;;;;4859347;29;20773;-83
2023/11/29 07:59:24;;;;;;;20.07;12.77;;;-1.80;99.90;;;;;;4858295;29;20095;-83
2023/11/29 08:01:49;;;;;;;19.17;12.53;;;-1.70;99.90;;;;;;4856024;29;20033;-82
2023/11/29 08:04:15;;;;;;;20.00;12.43;;;-1.70;99.90;;;;;;4863462;29;20108;-83
2023/11/29 08:06:41;;;;;;;19.93;11.57;;;-1.60;99.90;;;;;;4867896;29;20077;-83
2023/11/29 08:09:08;;;;;;;15.43;10.57;;;-1.60;99.90;;;;;;4869286;29;20036;-83
2023/11/29 08:11:34;;;;;;;15.87;10.20;;;-1.50;99.90;;;;;;4868135;29;20082;-83
2023/11/29 08:14:02;;;;;;;13.40;9.30;;;-1.40;99.90;;;;;;4867523;29;20093;-83
2023/11/29 08:16:31;;;;;;;12.23;8.40;;;-1.40;99.90;;;;;;4868009;29;20033;-83
2023/11/29 08:18:57;;;;;;;13.63;9.20;;;-1.30;99.90;;;;;;4868924;29;20041;-83
2023/11/29 08:21:23;;;;;;;13.17;8.20;;;-1.20;99.90;;;;;;4853476;29;20040;-83
2023/11/29 08:23:48;;;;;;;13.53;8.53;;;-1.10;99.90;;;;;;4861665;29;20044;-83
2023/11/29 08:26:14;;;;;;;13.10;9.17;;;-1.10;99.90;;;;;;4865520;29;20044;-83
2023/11/29 08:28:39;;;;;;;13.30;8.63;;;-1.00;99.90;;;;;;4865888;29;20057;-84
2023/11/29 08:31:05;;;;;;;13.43;9.53;;;-0.90;99.90;;;;;;4866721;29;20089;-83
2023/11/29 08:33:30;;;;;;;12.63;8.67;;;-0.90;99.90;;;;;;4865510;29;20033;-83
2023/11/29 08:35:56;;;;;;;12.03;8.40;;;-0.90;99.90;;;;;;4864989;29;20637;-83
2023/11/29 08:38:23;;;;;;;13.50;8.17;;;-0.80;99.90;;;;;;4867503;29;20036;-84
2023/11/29 08:40:49;;;;;;;10.27;7.27;;;-0.70;99.90;;;;;;4870527;29;20033;-83
2023/11/29 08:43:14;;;;;;;12.70;8.87;;;-0.70;99.90;;;;;;4870176;29;20039;-83
2023/11/29 08:45:40;;;;;;;11.17;8.10;;;-0.60;99.90;;;;;;4873171;29;20029;-83
2023/11/29 08:48:05;;;;;;;11.60;8.63;;;-0.60;99.90;;;;;;4873875;29;20029;-83
2023/11/29 08:50:31;;;;;;;11.80;8.17;;;-0.50;99.90;;;;;;4873795;29;20120;-83
2023/11/29 08:52:56;;;;;;;9.83;7.47;;;-0.50;99.90;;;;;;4874896;29;20172;-83
2023/11/29 08:55:22;;;;;;;9.63;7.00;;;-0.50;99.90;;;;;;4872473;29;20489;-83
2023/11/29 08:57:49;;;;;;;10.03;7.30;;;-0.40;99.90;;;;;;4875610;29;20037;-83
2023/11/29 09:00:15;;;;;;;10.90;7.00;;;-0.40;99.90;;;;;;4870907;29;20060;-83
2023/11/29 09:02:41;;;;;;;9.80;7.03;;;-0.30;99.90;;;;;;4873305;29;20128;-83
2023/11/29 09:05:07;;;;;;;9.17;6.50;;;-0.30;99.90;;;;;;4875098;29;20123;-84
2023/11/29 09:07:33;;;;;;;9.63;7.10;;;-0.20;99.90;;;;;;4874898;29;20207;-83
2023/11/29 09:09:58;;;;;;;9.53;6.77;;;-0.20;99.90;;;;;;4873871;29;20025;-83
2023/11/29 09:12:25;;;;;;;9.03;6.77;;;-0.20;99.90;;;;;;4874235;29;20036;-83
2023/11/29 09:14:55;;;;;;;9.40;6.80;;;-0.10;99.90;;;;;;4874690;29;20052;-83
2023/11/29 09:17:24;;;;;;;10.33;6.77;;;0.00;99.90;;;;;;4874672;29;20032;-83
2023/11/29 09:19:50;;;;;;;8.97;6.53;;;0.00;99.90;;;;;;4872817;29;20115;-83
2023/11/29 09:22:17;;;;;;;8.23;6.57;;;0.00;99.90;;;;;;4876538;29;20125;-83
2023/11/29 09:24:43;;;;;;;8.83;6.73;;;0.10;99.90;;;;;;4880691;29;20040;-83
2023/11/29 09:27:09;;;;;;;10.37;6.83;;;0.10;99.90;;;;;;4874195;29;20044;-81
2023/11/29 09:29:34;;;;;;;7.97;6.60;;;0.10;99.90;;;;;;4875144;29;20035;-81
2023/11/29 09:32:00;;;;;;;8.70;6.40;;;0.10;99.90;;;;;;4876736;29;20164;-81
2023/11/29 09:34:26;;;;;;;11.73;7.37;;;0.10;99.90;;;;;;4874666;29;20121;-81
2023/11/29 09:36:53;;;;;;;8.47;6.30;;;0.20;99.90;;;;;;4879937;29;20029;-81
2023/11/29 09:39:19;;;;;;;8.00;6.40;;;0.20;99.90;;;;;;4886744;29;20025;-82
2023/11/29 09:41:45;;;;;;;10.60;7.83;;;0.20;99.90;;;;;;4887963;29;20033;-81
2023/11/29 09:44:12;;;;;;;10.83;6.87;;;0.20;99.90;;;;;;4889323;29;20025;-81
2023/11/29 09:46:38;;;;;;;7.77;5.73;;;0.20;99.90;;;;;;4887642;29;20037;-81
2023/11/29 09:49:05;;;;;;;8.57;5.80;;;0.30;99.90;;;;;;4887353;29;20052;-81
2023/11/29 09:51:31;;;;;;;9.63;6.87;;;0.40;99.90;;;;;;4886673;29;20033;-81
2023/11/29 09:53:57;;;;;;;7.87;6.57;;;0.40;99.90;;;;;;4887389;29;20808;-81
2023/11/29 09:56:23;;;;;;;8.63;6.13;;;0.50;99.90;;;;;;4884253;29;20040;-81
2023/11/29 09:58:49;;;;;;;8.93;6.30;;;0.50;99.90;;;;;;4879529;29;21442;-81
2023/11/29 10:01:15;;;;;;;7.50;6.13;;;0.60;99.90;;;;;;4873763;29;20048;-80
2023/11/29 10:03:41;;;;;;;8.20;6.43;;;0.70;99.90;;;;;;4874951;29;20045;-80
2023/11/29 10:06:08;;;;;;;9.20;6.53;;;0.70;99.90;;;;;;4881737;29;20637;-80
2023/11/29 10:08:34;;;;;;;8.67;6.57;;;0.80;99.90;;;;;;4878810;29;20040;-80
2023/11/29 10:11:00;;;;;;;9.87;6.60;;;0.80;99.90;;;;;;4870753;29;20029;-79
2023/11/29 10:13:26;;;;;;;11.07;7.00;;;0.90;99.90;;;;;;4869893;29;20045;-80
2023/11/29 10:15:52;;;;;;;10.73;7.00;;;1.00;99.90;;;;;;4867921;29;20037;-80
2023/11/29 10:18:19;;;;;;;10.03;7.17;;;1.00;99.90;;;;;;4869246;29;20131;-79
2023/11/29 10:20:51;;;;;;;9.60;6.60;;;1.00;99.90;;;;;;4868824;29;20039;-80
2023/11/29 10:23:16;;;;;;;8.80;5.77;;;1.00;99.90;;;;;;4868429;29;20029;-80
2023/11/29 10:25:45;;;;;;;8.57;6.50;;;1.10;99.90;;;;;;4869554;29;20507;-79
2023/11/29 10:28:11;;;;;;;8.90;6.50;;;1.10;99.90;;;;;;4870119;29;20041;-79
2023/11/29 10:30:38;;;;;;;7.70;5.97;;;1.20;99.90;;;;;;4869729;29;20069;-79
2023/11/29 10:33:05;;;;;;;7.80;5.90;;;1.20;99.90;;;;;;4867194;29;20117;-79
2023/11/29 10:35:35;;;;;;;8.13;6.07;;;1.30;99.90;;;;;;4866746;29;20089;-79
2023/11/29 10:38:14;;;;;;;7.50;6.00;;;1.30;99.90;;;;;;4866584;29;20097;-79
2023/11/29 10:40:44;;;;;;;7.73;5.60;;;1.30;99.90;;;;;;4867823;29;20033;-79
2023/11/29 10:43:13;;;;;;;6.80;5.50;;;1.40;99.90;;;;;;4866493;29;20029;-79
2023/11/29 10:45:41;;;;;;;7.37;5.57;;;1.50;99.90;;;;;;4867117;29;20139;-79
2023/11/29 10:48:18;;;;;;;6.63;4.87;;;1.60;99.90;;;;;;4868466;29;21351;-80
2023/11/29 10:50:48;;;;;;;7.03;5.73;;;1.70;99.90;;;;;;4884449;29;20328;-80
2023/11/29 10:53:15;;;;;;;6.80;5.20;;;1.80;99.90;;;;;;4870750;29;20079;-80
2023/11/29 10:55:43;;;;;;;11.03;5.90;;;1.90;99.90;;;;;;4869988;29;20108;-80
2023/11/29 10:58:17;;;;;;;7.03;5.37;;;1.90;99.90;;;;;;4870264;29;20029;-80
2023/11/29 11:00:47;;;;;;;4.88;3.65;;;1.90;99.90;;;;;;4871207;29;20156;-80
2023/11/29 11:03:37;;;;;;;5.90;4.80;;;1.90;99.90;;;;;;4871150;29;20052;-80
2023/11/29 11:06:21;;;;;;;5.47;4.53;;;1.90;99.90;;;;;;4871316;29;21492;-80
2023/11/29 11:08:47;;;;;;;5.67;4.70;;;1.80;99.90;;;;;;4873453;29;20029;-80
2023/11/29 11:11:38;;;;;;;6.33;4.53;;;1.80;99.90;;;;;;4874679;29;20037;-80
2023/11/29 11:14:13;;;;;;;6.73;4.77;;;1.80;99.90;;;;;;4872184;29;20048;-80
2023/11/29 11:17:03;;;;;;;6.15;4.88;;;1.80;99.90;;;;;;4872041;29;21488;-81
2023/11/29 11:19:30;;;;;;;6.13;4.70;;;1.80;99.90;;;;;;4871860;29;20025;-81
2023/11/29 11:21:56;;;;;;;6.00;4.60;;;1.80;99.90;;;;;;4873137;29;20040;-80
2023/11/29 11:25:00;;;;;;;6.97;5.07;;;1.80;99.90;;;;;;4870928;29;20041;-80
2023/11/29 11:27:40;;;;;;;6.30;4.87;;;1.80;99.90;;;;;;4870783;29;20044;-80
2023/11/29 11:30:15;;;;;;;5.43;4.10;;;1.90;99.90;;;;;;4869795;29;20029;-80
2023/11/29 11:32:40;;;;;;;6.28;4.70;;;1.90;99.90;;;;;;4870569;29;20089;-81
2023/11/29 11:35:18;;;;;;;7.27;4.80;;;2.00;99.90;;;;;;4871516;29;20029;-80
2023/11/29 11:38:00;;;;;;;5.50;4.50;;;2.00;99.90;;;;;;4868705;29;20124;-80
2023/11/29 11:40:29;;;;;;;6.10;4.40;;;2.00;99.90;;;;;;4865927;29;20029;-80
2023/11/29 11:42:56;;;;;;;6.47;4.90;;;2.10;99.90;;;;;;4872074;29;20033;-80
2023/11/29 11:45:22;;;;;;;6.87;5.00;;;2.20;99.90;;;;;;4864040;29;20048;-80
2023/11/29 11:47:57;;;;;;;6.77;5.10;;;2.20;99.90;;;;;;5094514;27;20603;-80
2023/11/29 11:50:23;;;;;;;6.10;5.00;;;2.30;99.90;;;;;;5092954;28;20781;-80
2023/11/29 11:52:48;;;;;;;6.63;4.90;;;2.30;99.90;;;;;;5094036;28;20076;-80
2023/11/29 11:55:15;;;;;;;6.67;5.07;;;2.30;99.90;;;;;;5093295;28;20020;-80
2023/11/29 11:57:43;;;;;;;6.17;4.87;;;2.40;99.90;;;;;;5075103;28;20027;-80
2023/11/29 12:00:10;;;;;;;6.13;4.83;;;2.40;99.90;;;;;;5072062;28;20032;-80
2023/11/29 12:02:36;;;;;;;5.93;4.63;;;2.50;99.90;;;;;;5070135;28;20181;-80
2023/11/29 12:05:06;;;;;;;5.67;3.90;;;2.60;99.90;;;;;;5074049;28;20458;-81
2023/11/29 12:07:33;;;;;;;5.07;4.27;;;2.60;99.90;;;;;;5079948;28;20044;-80
2023/11/29 12:09:59;;;;;;;5.50;4.13;;;2.60;99.90;;;;;;5081953;28;20043;-80
2023/11/29 12:12:28;;;;;;;5.63;4.20;;;2.60;99.90;;;;;;5081194;28;21251;-81
2023/11/29 12:14:54;;;;;;;5.30;4.23;;;2.60;99.90;;;;;;5083479;28;20150;-81
2023/11/29 12:17:20;;;;;;;6.83;4.37;;;2.60;99.90;;;;;;5084171;28;20041;-81
2023/11/29 12:19:47;;;;;;;5.10;3.80;;;2.60;99.90;;;;;;5079664;28;20025;-81
2023/11/29 12:22:14;;;;;;;5.03;4.10;;;2.60;99.90;;;;;;5080263;28;20048;-82
2023/11/29 12:24:39;;;;;;;6.73;4.33;;;2.60;99.90;;;;;;5076937;28;20406;-77
2023/11/29 12:27:09;;;;;;;5.00;3.87;;;2.70;99.90;;;;;;5074524;28;20036;-77
2023/11/29 12:29:40;;;;;;;4.83;3.80;;;2.70;99.90;;;;;;5075652;28;20124;-80
2023/11/29 12:32:07;;;;;;;6.03;4.33;;;2.70;99.90;;;;;;5078884;28;20031;-80
2023/11/29 12:34:33;;;;;;;5.13;4.07;;;2.70;99.90;;;;;;5075341;28;20040;-82